Time,TemperatureF,DewpointF,PressureIn,WindDirection,WindDirectionDegrees,WindSpeedMPH,WindSpeedGustMPH,Humidity,HourlyPrecipIn,Conditions,Clouds,dailyrainin,SolarRadiationWatts/m^2,SoftwareType,DateUTC
2013-02-21 00:09:00,45.4,42.0,30.12,SW,218,0.0,0.0,87,0.00,,,0.00,0,weatherlink.com 1.10,2013-02-21 05:09:00,
2013-02-21 00:24:00,45.1,42.0,30.11,SW,218,0.0,0.0,88,0.00,,,0.00,0,weatherlink.com 1.10,2013-02-21 05:24:00,
2013-02-21 00:39:00,45.4,42.0,30.11,SW,218,0.0,0.0,89,0.00,,,0.00,0,weatherlink.com 1.10,2013-02-21 05:39:00,
2013-02-21 00:54:00,45.2,42.0,30.11,SW,218,0.0,0.0,89,0.00,,,0.00,0,weatherlink.com 1.10,2013-02-21 05:54:00,
2013-02-21 01:09:00,44.5,42.0,30.11,SW,218,0.0,0.0,89,0.00,,,0.00,0,weatherlink.com 1.10,2013-02-21 06:09:00,
2013-02-21 01:24:00,44.1,42.0,30.12,SW,218,0.0,0.0,91,0.00,,,0.00,0,weatherlink.com 1.10,2013-02-21 06:24:00,
2013-02-21 01:39:00,43.9,42.0,30.12,SW,218,0.0,0.0,91,0.00,,,0.00,0,weatherlink.com 1.10,2013-02-21 06:39:00,
2013-02-21 01:54:00,43.7,42.0,30.11,SW,218,0.0,0.0,92,0.00,,,0.00,0,weatherlink.com 1.10,2013-02-21 06:54:00,
2013-02-21 02:10:00,43.5,41.0,30.11,SW,218,0.0,0.0,92,0.00,,,0.00,0,weatherlink.com 1.10,2013-02-21 07:10:00,
2013-02-21 02:24:00,43.4,41.0,30.11,SW,218,0.0,0.0,92,0.00,,,0.00,0,weatherlink.com 1.10,2013-02-21 07:24:00,
2013-02-21 02:39:00,42.9,41.0,30.11,SW,218,0.0,0.0,93,0.00,,,0.00,0,weatherlink.com 1.10,2013-02-21 07:39:00,
2013-02-21 02:55:00,42.6,41.0,30.11,SW,218,0.0,0.0,93,0.00,,,0.00,0,weatherlink.com 1.10,2013-02-21 07:55:00,
2013-02-21 03:09:00,42.6,41.0,30.10,SW,218,0.0,0.0,93,0.00,,,0.00,0,weatherlink.com 1.10,2013-02-21 08:09:00,
2013-02-21 03:24:00,42.6,41.0,30.10,SW,218,0.0,0.0,94,0.00,,,0.00,0,weatherlink.com 1.10,2013-02-21 08:24:00,
2013-02-21 03:39:00,42.6,41.0,30.10,SW,218,0.0,0.0,94,0.00,,,0.00,0,weatherlink.com 1.10,2013-02-21 08:39:00,
2013-02-21 03:55:00,42.6,41.0,30.10,SW,218,0.0,0.0,94,0.00,,,0.00,0,weatherlink.com 1.10,2013-02-21 08:55:00,
2013-02-21 04:10:00,42.3,41.0,30.09,SW,218,0.0,0.0,94,0.00,,,0.00,0,weatherlink.com 1.10,2013-02-21 09:10:00,
2013-02-21 04:24:00,42.0,41.0,30.10,SW,218,0.0,0.0,95,0.00,,,0.00,0,weatherlink.com 1.10,2013-02-21 09:24:00,
2013-02-21 04:39:00,42.5,41.0,30.11,SW,218,0.0,0.0,95,0.00,,,0.00,0,weatherlink.com 1.10,2013-02-21 09:39:00,
2013-02-21 04:55:00,42.0,41.0,30.11,SW,218,0.0,0.0,95,0.00,,,0.00,0,weatherlink.com 1.10,2013-02-21 09:55:00,
2013-02-21 05:09:00,41.7,40.0,30.11,SW,218,0.0,0.0,95,0.00,,,0.00,0,weatherlink.com 1.10,2013-02-21 10:09:00,
2013-02-21 05:25:00,42.0,41.0,30.10,SW,218,0.0,0.0,95,0.00,,,0.00,0,weatherlink.com 1.10,2013-02-21 10:25:00,
2013-02-21 05:40:00,41.7,40.0,30.11,SW,218,0.0,0.0,95,0.00,,,0.00,0,weatherlink.com 1.10,2013-02-21 10:40:00,
2013-02-21 05:55:00,41.4,40.0,30.11,SW,218,0.0,0.0,95,0.00,,,0.00,0,weatherlink.com 1.10,2013-02-21 10:55:00,
2013-02-21 06:10:00,41.8,41.0,30.11,SW,218,0.0,0.0,96,0.00,,,0.00,0,weatherlink.com 1.10,2013-02-21 11:10:00,
2013-02-21 06:25:00,41.9,41.0,30.12,SW,218,0.0,0.0,96,0.00,,,0.00,0,weatherlink.com 1.10,2013-02-21 11:25:00,
2013-02-21 06:40:00,41.7,40.0,30.13,SW,218,0.0,0.0,95,0.00,,,0.00,0,weatherlink.com 1.10,2013-02-21 11:40:00,
2013-02-21 06:55:00,41.5,40.0,30.13,SW,218,0.0,0.0,95,0.00,,,0.00,5,weatherlink.com 1.10,2013-02-21 11:55:00,
2013-02-21 07:10:00,41.4,40.0,30.14,SW,218,0.0,0.0,95,0.00,,,0.00,19,weatherlink.com 1.10,2013-02-21 12:10:00,
2013-02-21 07:25:00,41.0,40.0,30.15,SW,218,0.0,0.0,96,0.00,,,0.00,30,weatherlink.com 1.10,2013-02-21 12:25:00,
2013-02-21 07:40:00,41.7,41.0,30.15,SW,218,0.0,0.0,96,0.00,,,0.00,97,weatherlink.com 1.10,2013-02-21 12:40:00,
2013-02-21 07:55:00,43.4,42.0,30.15,SW,218,0.0,0.0,96,0.00,,,0.00,174,weatherlink.com 1.10,2013-02-21 12:55:00,
2013-02-21 08:10:00,44.8,44.0,30.16,East,97,0.0,1.0,97,0.00,,,0.00,206,weatherlink.com 1.10,2013-02-21 13:10:00,
2013-02-21 08:25:00,45.8,45.0,30.17,North,11,0.0,1.0,96,0.00,,,0.00,244,weatherlink.com 1.10,2013-02-21 13:25:00,
2013-02-21 08:40:00,46.4,45.0,30.18,North,5,2.0,5.0,94,0.00,,,0.00,297,weatherlink.com 1.10,2013-02-21 13:40:00,
2013-02-21 08:55:00,47.0,45.0,30.17,North,356,1.0,6.0,91,0.00,,,0.00,287,weatherlink.com 1.10,2013-02-21 13:55:00,
2013-02-21 09:10:00,48.1,45.0,30.17,North,350,3.0,7.0,88,0.00,,,0.00,308,weatherlink.com 1.10,2013-02-21 14:10:00,
2013-02-21 09:25:00,48.8,44.0,30.17,North,359,2.0,5.0,84,0.00,,,0.00,232,weatherlink.com 1.10,2013-02-21 14:25:00,
2013-02-21 09:40:00,50.2,45.0,30.17,North,7,1.0,3.0,81,0.00,,,0.00,508,weatherlink.com 1.10,2013-02-21 14:40:00,
2013-02-21 09:55:00,51.8,44.0,30.16,North,355,0.0,3.0,76,0.00,,,0.00,420,weatherlink.com 1.10,2013-02-21 14:55:00,
2013-02-21 10:11:00,53.5,44.0,30.17,ENE,67,3.0,7.0,71,0.00,,,0.00,568,weatherlink.com 1.10,2013-02-21 15:11:00,
2013-02-21 10:26:00,55.2,44.0,30.16,NNE,14,0.0,4.0,65,0.00,,,0.00,621,weatherlink.com 1.10,2013-02-21 15:26:00,
2013-02-21 10:41:00,56.5,44.0,30.16,NNE,14,0.0,5.0,64,0.00,,,0.00,687,weatherlink.com 1.10,2013-02-21 15:41:00,
2013-02-21 10:56:00,56.1,48.0,30.16,SSE,159,8.0,8.0,73,0.00,,,0.00,686,weatherlink.com 1.10,2013-02-21 15:56:00,
2013-02-21 11:11:00,56.1,48.0,30.17,SE,132,6.0,9.0,74,0.00,,,0.00,684,weatherlink.com 1.10,2013-02-21 16:11:00,
2013-02-21 11:26:00,56.7,48.0,30.17,ESE,114,2.0,7.0,72,0.00,,,0.00,710,weatherlink.com 1.10,2013-02-21 16:26:00,
2013-02-21 11:41:00,56.4,47.0,30.17,SSE,161,7.0,9.0,71,0.00,,,0.00,765,weatherlink.com 1.10,2013-02-21 16:41:00,
2013-02-21 11:56:00,57.0,47.0,30.17,ESE,117,3.0,9.0,70,0.00,,,0.00,756,weatherlink.com 1.10,2013-02-21 16:56:00,
2013-02-21 12:11:00,56.4,47.0,30.16,ESE,112,8.0,11.0,71,0.00,,,0.00,738,weatherlink.com 1.10,2013-02-21 17:11:00,
2013-02-21 12:26:00,55.9,46.0,30.16,East,91,6.0,11.0,70,0.00,,,0.00,733,weatherlink.com 1.10,2013-02-21 17:26:00,
2013-02-21 12:41:00,55.4,45.0,30.15,SE,143,7.0,13.0,69,0.00,,,0.00,766,weatherlink.com 1.10,2013-02-21 17:41:00,
2013-02-21 12:56:00,56.5,45.0,30.14,SE,137,7.0,12.0,66,0.00,,,0.00,770,weatherlink.com 1.10,2013-02-21 17:56:00,
2013-02-21 13:11:00,56.9,46.0,30.14,SE,146,1.0,11.0,67,0.00,,,0.00,722,weatherlink.com 1.10,2013-02-21 18:11:00,
2013-02-21 13:26:00,56.6,45.0,30.13,SE,128,8.0,14.0,65,0.00,,,0.00,682,weatherlink.com 1.10,2013-02-21 18:26:00,
2013-02-21 13:41:00,56.0,46.0,30.12,SSE,166,6.0,12.0,68,0.00,,,0.00,733,weatherlink.com 1.10,2013-02-21 18:41:00,
2013-02-21 13:56:00,55.7,45.0,30.11,ESE,116,7.0,12.0,67,0.00,,,0.00,677,weatherlink.com 1.10,2013-02-21 18:56:00,
2013-02-21 14:11:00,55.8,44.0,30.11,SSE,168,5.0,12.0,65,0.00,,,0.00,689,weatherlink.com 1.10,2013-02-21 19:11:00,
2013-02-21 14:26:00,55.8,45.0,30.10,ESE,111,7.0,14.0,68,0.00,,,0.00,668,weatherlink.com 1.10,2013-02-21 19:26:00,
2013-02-21 14:41:00,55.7,46.0,30.09,ESE,107,7.0,12.0,69,0.00,,,0.00,629,weatherlink.com 1.10,2013-02-21 19:41:00,
2013-02-21 14:56:00,55.4,46.0,30.09,ESE,118,9.0,15.0,71,0.00,,,0.00,591,weatherlink.com 1.10,2013-02-21 19:56:00,
2013-02-21 15:11:00,54.8,46.0,30.10,East,89,3.0,11.0,72,0.00,,,0.00,554,weatherlink.com 1.10,2013-02-21 20:11:00,
2013-02-21 15:26:00,55.5,46.0,30.09,East,93,1.0,10.0,71,0.00,,,0.00,533,weatherlink.com 1.10,2013-02-21 20:26:00,
2013-02-21 15:41:00,55.3,46.0,30.09,ESE,113,5.0,10.0,72,0.00,,,0.00,455,weatherlink.com 1.10,2013-02-21 20:41:00,
2013-02-21 15:56:00,54.8,46.0,30.09,SE,134,8.0,13.0,73,0.00,,,0.00,410,weatherlink.com 1.10,2013-02-21 20:56:00,
2013-02-21 16:11:00,55.1,47.0,30.09,SE,130,8.0,11.0,73,0.00,,,0.00,401,weatherlink.com 1.10,2013-02-21 21:11:00,
2013-02-21 16:26:00,55.4,47.0,30.09,SE,127,4.0,9.0,73,0.00,,,0.00,359,weatherlink.com 1.10,2013-02-21 21:26:00,
2013-02-21 16:41:00,55.0,47.0,30.09,SE,143,4.0,12.0,74,0.00,,,0.00,199,weatherlink.com 1.10,2013-02-21 21:41:00,
2013-02-21 16:56:00,54.4,46.0,30.09,SSE,153,2.0,8.0,74,0.00,,,0.00,121,weatherlink.com 1.10,2013-02-21 21:56:00,
2013-02-21 17:11:00,54.3,47.0,30.09,ESE,110,4.0,6.0,76,0.00,,,0.00,135,weatherlink.com 1.10,2013-02-21 22:11:00,
2013-02-21 17:26:00,54.0,47.0,30.10,East,92,6.0,9.0,77,0.00,,,0.00,83,weatherlink.com 1.10,2013-02-21 22:26:00,
2013-02-21 17:41:00,53.7,47.0,30.09,ESE,114,0.0,7.0,79,0.00,,,0.00,44,weatherlink.com 1.10,2013-02-21 22:41:00,
2013-02-21 17:56:00,53.5,48.0,30.10,East,93,4.0,6.0,81,0.00,,,0.00,19,weatherlink.com 1.10,2013-02-21 22:56:00,
2013-02-21 18:11:00,53.2,48.0,30.10,East,85,0.0,2.0,83,0.00,,,0.00,0,weatherlink.com 1.10,2013-02-21 23:11:00,
2013-02-21 18:26:00,52.8,48.0,30.10,East,101,0.0,0.0,84,0.00,,,0.00,0,weatherlink.com 1.10,2013-02-21 23:26:00,
2013-02-21 18:41:00,52.4,48.0,30.10,ESE,102,0.0,0.0,86,0.00,,,0.00,0,weatherlink.com 1.10,2013-02-21 23:41:00,
2013-02-21 18:56:00,52.2,48.0,30.10,East,88,0.0,0.0,86,0.00,,,0.00,0,weatherlink.com 1.10,2013-02-21 23:56:00,
2013-02-21 19:11:00,51.8,48.0,30.10,East,88,0.0,1.0,87,0.00,,,0.00,0,weatherlink.com 1.10,2013-02-22 00:11:00,
2013-02-21 19:26:00,51.6,48.0,30.10,ESE,107,0.0,1.0,88,0.00,,,0.00,0,weatherlink.com 1.10,2013-02-22 00:26:00,
2013-02-21 19:41:00,52.1,49.0,30.10,SE,129,0.0,4.0,90,0.00,,,0.00,0,weatherlink.com 1.10,2013-02-22 00:41:00,
2013-02-21 19:56:00,52.8,50.0,30.11,SE,141,1.0,3.0,90,0.00,,,0.00,0,weatherlink.com 1.10,2013-02-22 00:56:00,
2013-02-21 20:11:00,53.3,51.0,30.11,ESE,122,2.0,5.0,91,0.00,,,0.00,0,weatherlink.com 1.10,2013-02-22 01:11:00,
2013-02-21 20:26:00,53.5,51.0,30.11,SE,124,0.0,4.0,90,0.00,,,0.00,0,weatherlink.com 1.10,2013-02-22 01:26:00,
2013-02-21 20:41:00,53.5,51.0,30.11,ESE,107,3.0,5.0,91,0.00,,,0.00,0,weatherlink.com 1.10,2013-02-22 01:41:00,
2013-02-21 20:56:00,53.7,51.0,30.11,ESE,110,1.0,5.0,91,0.00,,,0.00,0,weatherlink.com 1.10,2013-02-22 01:56:00,
2013-02-21 21:12:00,53.6,51.0,30.11,NE,56,0.0,5.0,91,0.00,,,0.00,0,weatherlink.com 1.10,2013-02-22 02:12:00,
2013-02-21 21:26:00,53.5,51.0,30.12,NNE,19,0.0,4.0,92,0.00,,,0.00,0,weatherlink.com 1.10,2013-02-22 02:26:00,
2013-02-21 21:41:00,53.3,51.0,30.12,ENE,65,2.0,3.0,92,0.00,,,0.00,0,weatherlink.com 1.10,2013-02-22 02:41:00,
2013-02-21 21:56:00,53.5,51.0,30.12,East,96,0.0,5.0,92,0.00,,,0.00,0,weatherlink.com 1.10,2013-02-22 02:56:00,
2013-02-21 22:11:00,53.7,52.0,30.12,NE,49,0.0,0.0,92,0.00,,,0.00,0,weatherlink.com 1.10,2013-02-22 03:11:00,
2013-02-21 22:26:00,54.0,52.0,30.13,North,352,0.0,5.0,92,0.00,,,0.00,0,weatherlink.com 1.10,2013-02-22 03:26:00,
2013-02-21 22:41:00,53.9,52.0,30.14,ESE,102,0.0,5.0,92,0.00,,,0.00,0,weatherlink.com 1.10,2013-02-22 03:41:00,
2013-02-21 22:56:00,53.3,51.0,30.13,East,89,0.0,2.0,92,0.00,,,0.00,0,weatherlink.com 1.10,2013-02-22 03:56:00,
2013-02-21 23:11:00,53.1,51.0,30.13,NW,326,0.0,1.0,93,0.00,,,0.00,0,weatherlink.com 1.10,2013-02-22 04:11:00,
2013-02-21 23:26:00,53.3,51.0,30.14,NNW,347,0.0,2.0,93,0.00,,,0.00,0,weatherlink.com 1.10,2013-02-22 04:26:00,
2013-02-21 23:41:00,53.4,52.0,30.14,North,3,2.0,2.0,94,0.00,,,0.00,0,weatherlink.com 1.10,2013-02-22 04:41:00,
2013-02-21 23:56:00,53.5,52.0,30.14,NNE,16,0.0,2.0,94,0.00,,,0.00,0,weatherlink.com 1.10,2013-02-22 04:56:00,